Time;durP1;ratioP1;P1;durP2;ratioP2;P2;SDS_P1;SDS_P2;PMS_P1;PMS_P2;Temp;Humidity;BMP_temperature;BMP_pressure;BME280_temperature;BME280_humidity;BME280_pressure;Samples;Min_cycle;Max_cycle;Signal;HPM_P1;HPM_P2
2021/11/08 00:00:51;;;;;;;15.07;7.95;;;11.90;95.70;;;;;;5043612;28;20187;-73
2021/11/08 00:03:21;;;;;;;11.65;8.48;;;11.90;95.40;;;;;;5045824;28;20845;-73
2021/11/08 00:05:47;;;;;;;12.70;8.85;;;11.90;95.60;;;;;;5045140;28;20189;-73
2021/11/08 00:08:15;;;;;;;10.90;7.25;;;11.80;95.60;;;;;;5045567;28;20195;-73
2021/11/08 00:10:41;;;;;;;15.88;8.65;;;11.80;95.50;;;;;;5046341;28;20179;-73
2021/11/08 00:13:08;;;;;;;18.02;9.38;;;11.80;95.70;;;;;;5045725;28;20171;-74
2021/11/08 00:15:47;;;;;;;12.93;9.13;;;11.70;95.70;;;;;;5044132;28;20215;-73
2021/11/08 00:20:49;;;;;;;14.52;9.70;;;11.70;96.20;;;;;;5044676;28;20187;-73
2021/11/08 00:23:15;;;;;;;11.55;8.55;;;11.60;96.00;;;;;;5042845;28;20184;-73
2021/11/08 00:25:42;;;;;;;16.95;9.73;;;11.60;95.70;;;;;;5045943;28;20252;-71
2021/11/08 00:28:13;;;;;;;15.93;9.07;;;11.60;96.20;;;;;;5045469;28;20187;-72
2021/11/08 00:30:41;;;;;;;15.88;9.32;;;11.50;96.10;;;;;;5045615;28;20572;-74
2021/11/08 00:33:09;;;;;;;15.82;9.68;;;11.50;95.80;;;;;;5046265;28;20236;-73
2021/11/08 00:35:39;;;;;;;10.95;8.50;;;11.50;95.90;;;;;;5042240;28;20274;-73
2021/11/08 00:38:07;;;;;;;14.25;8.70;;;11.50;96.60;;;;;;5044800;28;20215;-73
2021/11/08 00:40:34;;;;;;;14.27;8.82;;;11.40;96.80;;;;;;5043950;28;20180;-72
2021/11/08 00:43:00;;;;;;;17.73;11.23;;;11.40;96.50;;;;;;5043696;28;20345;-73
2021/11/08 00:45:26;;;;;;;24.80;11.85;;;11.50;96.40;;;;;;5044631;28;20191;-73
2021/11/08 00:47:52;;;;;;;14.20;10.13;;;11.40;96.20;;;;;;5046145;28;20244;-72
2021/11/08 00:50:18;;;;;;;17.75;9.38;;;11.40;96.20;;;;;;5044973;28;20195;-72
2021/11/08 00:52:45;;;;;;;20.95;11.43;;;11.40;96.10;;;;;;5045230;28;20184;-72
2021/11/08 00:55:11;;;;;;;20.05;11.10;;;11.40;96.00;;;;;;5044407;28;20537;-72
2021/11/08 00:57:38;;;;;;;21.02;12.32;;;11.40;96.60;;;;;;5045787;28;20210;-74
2021/11/08 01:00:07;;;;;;;19.60;9.93;;;11.40;96.70;;;;;;5043012;28;20183;-72
2021/11/08 01:02:33;;;;;;;17.10;9.13;;;11.40;96.60;;;;;;5044798;28;20819;-72
2021/11/08 01:05:00;;;;;;;11.70;8.25;;;11.40;96.90;;;;;;5044377;28;20226;-73
2021/11/08 01:07:26;;;;;;;17.40;9.18;;;11.30;96.80;;;;;;5045554;28;20718;-73
2021/11/08 01:09:51;;;;;;;15.15;7.38;;;11.30;96.80;;;;;;5045106;28;20175;-74
2021/11/08 01:12:17;;;;;;;15.73;6.97;;;11.30;96.90;;;;;;5046052;28;20580;-73
2021/11/08 01:14:44;;;;;;;16.02;8.48;;;11.30;96.70;;;;;;5044613;28;20274;-73
2021/11/08 01:17:10;;;;;;;15.90;7.53;;;11.30;96.80;;;;;;5044182;28;20235;-73
2021/11/08 01:19:36;;;;;;;13.70;7.28;;;11.20;96.70;;;;;;5044632;28;20916;-73
2021/11/08 01:22:14;;;;;;;9.38;7.22;;;11.20;96.90;;;;;;5045167;28;20176;-73
2021/11/08 01:24:40;;;;;;;13.57;6.97;;;11.20;96.90;;;;;;5041680;28;20187;-74
2021/11/08 01:27:07;;;;;;;13.98;7.28;;;11.20;96.70;;;;;;5045806;28;20222;-73
2021/11/08 01:29:33;;;;;;;13.70;7.53;;;11.10;96.80;;;;;;5045982;28;20183;-73
2021/11/08 01:32:01;;;;;;;11.15;7.55;;;11.00;97.10;;;;;;5046214;28;20707;-73
2021/11/08 01:34:30;;;;;;;14.07;7.70;;;11.00;97.30;;;;;;5042944;28;20365;-72
2021/11/08 01:36:59;;;;;;;14.95;6.88;;;11.00;96.80;;;;;;5042874;28;20328;-73
2021/11/08 01:39:32;;;;;;;13.60;7.13;;;11.00;96.80;;;;;;5044545;28;20180;-73
2021/11/08 01:41:59;;;;;;;13.10;8.25;;;10.90;97.00;;;;;;5045671;28;20203;-73
2021/11/08 01:44:26;;;;;;;16.88;6.70;;;10.90;97.00;;;;;;5041910;28;20654;-72
2021/11/08 01:46:52;;;;;;;9.63;6.32;;;10.90;96.70;;;;;;5045250;28;20278;-72
2021/11/08 01:49:18;;;;;;;12.15;7.60;;;10.90;96.70;;;;;;5049510;28;20266;-72
2021/11/08 01:51:44;;;;;;;13.07;6.70;;;10.90;97.00;;;;;;5047619;28;20176;-72
2021/11/08 01:54:12;;;;;;;16.15;7.90;;;10.90;96.90;;;;;;5046856;28;20200;-72
2021/11/08 01:56:38;;;;;;;11.70;7.60;;;10.90;96.80;;;;;;5048696;28;20179;-72
2021/11/08 01:59:04;;;;;;;7.63;6.40;;;10.90;96.80;;;;;;5048911;28;20233;-73
2021/11/08 02:01:29;;;;;;;12.13;7.95;;;10.90;96.80;;;;;;5047601;28;21551;-72
2021/11/08 02:03:55;;;;;;;13.75;7.43;;;10.90;96.70;;;;;;5046572;28;20176;-73
2021/11/08 02:06:21;;;;;;;15.48;7.63;;;10.90;96.70;;;;;;5048885;28;20180;-74
2021/11/08 02:08:47;;;;;;;14.35;7.20;;;10.90;96.70;;;;;;5047442;28;20188;-73
2021/11/08 02:11:14;;;;;;;14.40;7.28;;;10.80;96.70;;;;;;5048830;28;20704;-74
2021/11/08 02:13:40;;;;;;;10.52;7.50;;;10.80;96.60;;;;;;5047703;28;20911;-72
2021/11/08 02:16:07;;;;;;;16.98;7.85;;;10.80;96.80;;;;;;5048343;28;20538;-73
2021/11/08 02:18:35;;;;;;;13.05;8.40;;;10.60;96.80;;;;;;5046486;28;20219;-72
2021/11/08 02:21:06;;;;;;;14.82;7.30;;;10.60;97.50;;;;;;5047046;28;20187;-73
2021/11/08 02:23:31;;;;;;;17.27;7.72;;;10.50;98.00;;;;;;5045933;28;20184;-72
2021/11/08 02:26:01;;;;;;;10.73;7.30;;;10.50;98.00;;;;;;5046911;28;20179;-72
2021/11/08 02:28:27;;;;;;;9.15;6.75;;;10.40;97.90;;;;;;5048362;28;20550;-72
2021/11/08 02:30:56;;;;;;;13.25;7.45;;;10.40;98.00;;;;;;5046692;28;20190;-72
2021/11/08 02:33:25;;;;;;;10.48;7.85;;;10.40;98.10;;;;;;5046693;28;20267;-71
2021/11/08 02:35:52;;;;;;;18.80;9.18;;;10.40;98.20;;;;;;5046111;28;20272;-72
2021/11/08 02:38:23;;;;;;;15.75;8.85;;;10.40;98.30;;;;;;5045600;28;20713;-72
2021/11/08 02:40:50;;;;;;;12.57;8.90;;;10.40;98.20;;;;;;5048349;28;20665;-72
2021/11/08 02:43:24;;;;;;;15.75;10.23;;;10.40;98.50;;;;;;5045068;28;20653;-72
2021/11/08 02:46:02;;;;;;;17.42;10.07;;;10.40;98.50;;;;;;5048233;28;20630;-72
2021/11/08 02:48:28;;;;;;;19.17;11.00;;;10.30;98.50;;;;;;5047564;28;20206;-74
2021/11/08 02:51:03;;;;;;;24.95;11.27;;;10.30;98.50;;;;;;5047108;28;20193;-73
2021/11/08 02:53:29;;;;;;;14.88;9.98;;;10.30;98.50;;;;;;5042936;28;20245;-73
2021/11/08 02:55:55;;;;;;;24.13;13.20;;;10.30;98.50;;;;;;5049072;28;20184;-73
2021/11/08 02:58:23;;;;;;;21.70;10.85;;;10.30;98.50;;;;;;5044364;28;20247;-72
2021/11/08 03:00:49;;;;;;;28.03;12.27;;;10.30;98.50;;;;;;5048377;28;20195;-71
2021/11/08 03:03:15;;;;;;;23.77;11.15;;;10.20;98.50;;;;;;5047690;28;20177;-72
2021/11/08 03:05:41;;;;;;;20.45;10.30;;;10.20;98.50;;;;;;5047900;28;20541;-73
2021/11/08 03:08:10;;;;;;;17.53;10.93;;;10.20;98.50;;;;;;5046407;28;20570;-72
2021/11/08 03:10:38;;;;;;;18.10;11.25;;;10.20;98.50;;;;;;5047683;28;20194;-74
2021/11/08 03:13:24;;;;;;;12.68;9.27;;;10.10;98.50;;;;;;5045615;28;20207;-78
2021/11/08 03:15:58;;;;;;;18.92;10.90;;;10.10;98.50;;;;;;5045094;28;20184;-76
2021/11/08 03:18:39;;;;;;;17.25;9.57;;;10.00;98.50;;;;;;5047731;28;20214;-76
2021/11/08 03:21:15;;;;;;;14.70;8.60;;;10.00;98.50;;;;;;5045592;28;20397;-74
2021/11/08 03:23:42;;;;;;;17.48;9.82;;;10.00;98.50;;;;;;5045047;28;20187;-72
2021/11/08 03:28:54;;;;;;;16.10;9.38;;;10.00;98.50;;;;;;4992258;28;20197;-72
2021/11/08 03:31:20;;;;;;;16.15;8.93;;;10.00;98.50;;;;;;4989021;28;20605;-71
2021/11/08 03:33:48;;;;;;;17.75;9.23;;;10.00;98.50;;;;;;4996630;28;20239;-71
2021/11/08 03:36:15;;;;;;;19.10;8.80;;;10.00;98.50;;;;;;4976519;28;20225;-71
2021/11/08 03:38:41;;;;;;;14.25;9.32;;;10.00;98.50;;;;;;4991154;28;20220;-71
2021/11/08 03:41:08;;;;;;;18.63;9.63;;;10.00;98.50;;;;;;4992005;28;20186;-73
2021/11/08 03:43:35;;;;;;;23.23;11.70;;;10.00;98.50;;;;;;4991211;28;21065;-73
2021/11/08 03:46:01;;;;;;;15.33;10.27;;;10.00;98.50;;;;;;4992146;28;21034;-73
2021/11/08 03:48:27;;;;;;;18.90;9.87;;;10.00;98.50;;;;;;4987405;28;20196;-72
2021/11/08 03:50:54;;;;;;;17.90;11.47;;;10.00;98.50;;;;;;4993580;28;20610;-71
2021/11/08 03:53:20;;;;;;;20.63;10.48;;;10.00;98.50;;;;;;4972484;28;20276;-71
2021/11/08 03:55:46;;;;;;;18.13;9.68;;;10.00;98.50;;;;;;4990926;28;20280;-71
2021/11/08 03:58:15;;;;;;;17.25;10.50;;;10.00;98.50;;;;;;4989689;28;20253;-71
2021/11/08 04:00:41;;;;;;;21.50;9.98;;;10.00;98.50;;;;;;4993983;28;20192;-71
2021/11/08 04:03:09;;;;;;;23.05;10.20;;;10.00;98.50;;;;;;4990073;28;20190;-71
2021/11/08 04:05:36;;;;;;;16.80;9.68;;;9.90;98.50;;;;;;5010614;28;20634;-71
2021/11/08 04:08:09;;;;;;;18.30;9.55;;;9.90;98.50;;;;;;5041936;28;20245;-71
2021/11/08 04:10:37;;;;;;;15.73;8.63;;;9.90;98.50;;;;;;5043410;28;20187;-72
2021/11/08 04:13:04;;;;;;;13.68;9.20;;;9.90;98.50;;;;;;5045093;28;20218;-72
2021/11/08 04:15:37;;;;;;;20.38;9.45;;;9.90;98.50;;;;;;5043807;28;20185;-72
2021/11/08 04:18:09;;;;;;;13.88;9.13;;;9.90;98.50;;;;;;5041738;28;20219;-71
2021/11/08 04:20:37;;;;;;;18.52;10.32;;;9.90;98.50;;;;;;5045610;28;20196;-71
2021/11/08 04:23:04;;;;;;;22.13;9.88;;;9.90;98.50;;;;;;5044549;28;20226;-71
2021/11/08 04:25:30;;;;;;;17.63;9.93;;;9.90;98.50;;;;;;5045473;28;20183;-72
2021/11/08 04:27:57;;;;;;;14.63;9.68;;;9.90;98.50;;;;;;5043282;28;20241;-72
2021/11/08 04:30:25;;;;;;;23.00;10.30;;;9.90;98.50;;;;;;5043626;28;20183;-71
2021/11/08 04:33:11;;;;;;;18.10;10.17;;;9.90;98.50;;;;;;5045290;28;20201;-72
2021/11/08 04:54:02;;;;;;;12.07;7.22;;;10.00;98.50;;;;;;5046590;28;20215;-71
2021/11/08 05:31:43;;;;;;;12.35;8.57;;;10.10;98.50;;;;;;5048169;28;20175;-71
2021/11/08 05:34:09;;;;;;;13.95;9.48;;;10.10;98.50;;;;;;5048972;28;20183;-72
2021/11/08 05:36:35;;;;;;;18.85;9.30;;;10.10;98.50;;;;;;5048905;28;20261;-71
2021/11/08 05:39:04;;;;;;;14.95;8.52;;;10.20;98.50;;;;;;5048829;28;20963;-72
2021/11/08 05:41:30;;;;;;;13.20;8.35;;;10.20;98.50;;;;;;5045232;28;20260;-71
2021/11/08 05:43:55;;;;;;;12.30;8.48;;;10.20;98.50;;;;;;5049124;28;20179;-74
2021/11/08 05:46:21;;;;;;;16.73;8.13;;;10.20;98.50;;;;;;5047381;28;20862;-73
2021/11/08 05:48:47;;;;;;;15.60;9.43;;;10.20;98.50;;;;;;5047572;28;20187;-73
2021/11/08 05:51:13;;;;;;;18.88;8.98;;;10.30;98.50;;;;;;5047973;28;20180;-73
2021/11/08 05:53:43;;;;;;;22.83;10.65;;;10.30;98.50;;;;;;5045419;28;20682;-73
2021/11/08 06:50:22;;;;;;;16.25;10.32;;;11.50;97.00;;;;;;5046068;28;20197;-72
2021/11/08 06:52:50;;;;;;;32.88;10.75;;;11.50;97.00;;;;;;5045485;28;20178;-72
2021/11/08 06:55:17;;;;;;;20.63;11.85;;;11.70;97.20;;;;;;5044163;28;20210;-73
2021/11/08 06:57:47;;;;;;;28.75;12.07;;;11.90;97.70;;;;;;5044757;28;20314;-73
2021/11/08 07:00:16;;;;;;;17.73;11.43;;;12.00;96.80;;;;;;5044830;28;20263;-74
2021/11/08 07:02:42;;;;;;;23.95;11.45;;;12.20;96.50;;;;;;5047421;28;20271;-72
2021/11/08 07:05:08;;;;;;;17.88;10.30;;;12.30;96.30;;;;;;5046208;28;20263;-72
2021/11/08 07:07:34;;;;;;;21.15;11.88;;;12.70;97.20;;;;;;5047119;28;20188;-73
2021/11/08 07:10:00;;;;;;;19.80;11.68;;;13.20;96.10;;;;;;5046005;28;20553;-74
2021/11/08 07:12:35;;;;;;;20.88;12.02;;;13.70;96.40;;;;;;5045520;28;20184;-74
2021/11/08 07:15:01;;;;;;;20.63;12.32;;;14.30;94.20;;;;;;5046338;28;20278;-76
2021/11/08 07:17:27;;;;;;;19.08;12.10;;;14.80;91.20;;;;;;5041916;28;20666;-76
2021/11/08 07:19:53;;;;;;;20.70;12.35;;;15.40;92.20;;;;;;5047944;28;20270;-77
2021/11/08 07:22:19;;;;;;;22.83;12.38;;;16.00;91.70;;;;;;5043972;28;20202;-73
2021/11/08 07:24:46;;;;;;;19.05;12.70;;;16.60;90.80;;;;;;5047685;28;20191;-73
2021/11/08 07:27:12;;;;;;;20.30;12.85;;;17.20;86.50;;;;;;5045314;28;20190;-78
2021/11/08 07:29:38;;;;;;;17.83;13.00;;;17.70;86.40;;;;;;5045754;28;20176;-76
2021/11/08 07:32:05;;;;;;;26.77;12.55;;;18.20;86.00;;;;;;5047171;28;20213;-77
2021/11/08 07:34:31;;;;;;;30.92;13.32;;;18.80;83.60;;;;;;5047589;28;20278;-76
2021/11/08 07:36:58;;;;;;;22.30;13.13;;;19.20;80.70;;;;;;5044222;28;20219;-76
2021/11/08 07:39:23;;;;;;;19.13;13.18;;;19.50;79.10;;;;;;5046872;28;20182;-76
2021/11/08 07:41:49;;;;;;;22.75;14.32;;;19.90;78.00;;;;;;5045658;28;20627;-76
2021/11/08 07:44:16;;;;;;;22.08;13.60;;;20.30;78.80;;;;;;5047944;28;20190;-76
2021/11/08 07:46:42;;;;;;;20.10;14.23;;;20.80;79.10;;;;;;5045835;28;20230;-76
2021/11/08 07:49:08;;;;;;;25.33;14.27;;;21.30;76.90;;;;;;5046668;28;20293;-76
2021/11/08 07:51:34;;;;;;;29.40;14.15;;;21.90;76.30;;;;;;5046153;28;20262;-76
2021/11/08 07:54:00;;;;;;;25.13;14.68;;;22.30;74.20;;;;;;5045647;28;20198;-75
2021/11/08 07:56:26;;;;;;;24.55;13.85;;;22.80;73.00;;;;;;5047078;28;20176;-77
2021/11/08 07:58:52;;;;;;;24.50;13.48;;;23.30;72.20;;;;;;5046813;28;20216;-77
2021/11/08 08:01:18;;;;;;;22.48;14.23;;;24.20;70.80;;;;;;5045914;28;20172;-77
2021/11/08 08:03:46;;;;;;;26.58;14.68;;;24.30;71.20;;;;;;5043162;28;20641;-77
2021/11/08 08:06:13;;;;;;;20.95;12.95;;;24.80;67.00;;;;;;5042650;28;20203;-77
2021/11/08 08:08:39;;;;;;;27.05;14.48;;;25.00;67.40;;;;;;5039091;28;20191;-76
2021/11/08 08:11:06;;;;;;;20.73;13.18;;;25.40;66.20;;;;;;5041915;28;20218;-77
2021/11/08 08:13:34;;;;;;;20.30;12.30;;;25.70;66.70;;;;;;5042581;28;20186;-75
2021/11/08 08:16:02;;;;;;;25.63;13.13;;;26.00;65.10;;;;;;5042158;28;20179;-75
2021/11/08 08:18:30;;;;;;;19.35;13.07;;;26.30;65.80;;;;;;5042916;28;20215;-75
2021/11/08 08:20:57;;;;;;;20.35;13.95;;;26.80;64.90;;;;;;5043428;28;20188;-76
2021/11/08 08:23:23;;;;;;;23.58;14.85;;;27.30;64.70;;;;;;5045426;28;20184;-76
2021/11/08 08:25:49;;;;;;;27.17;15.57;;;27.60;63.10;;;;;;5043664;28;20895;-74
2021/11/08 08:28:15;;;;;;;27.02;15.27;;;27.80;62.50;;;;;;5044366;28;20184;-74
2021/11/08 08:30:41;;;;;;;23.92;13.98;;;27.90;61.30;;;;;;5043862;28;20546;-77
2021/11/08 08:33:07;;;;;;;18.45;14.82;;;28.20;62.00;;;;;;5044132;28;20661;-84
2021/11/08 08:35:39;;;;;;;22.42;15.23;;;28.50;60.70;;;;;;5044458;28;20203;-79
2021/11/08 08:38:09;;;;;;;20.67;14.32;;;28.50;60.20;;;;;;5042699;28;20604;-80
2021/11/08 08:40:36;;;;;;;20.92;14.50;;;28.40;58.40;;;;;;5045059;28;20184;-80
2021/11/08 08:43:03;;;;;;;22.50;13.65;;;28.40;60.60;;;;;;5045307;28;20190;-80
2021/11/08 08:45:31;;;;;;;23.05;14.32;;;28.60;59.70;;;;;;5044784;28;20662;-79
2021/11/08 08:47:57;;;;;;;25.23;13.25;;;28.90;59.90;;;;;;5043621;28;20180;-80
2021/11/08 08:50:22;;;;;;;21.42;14.27;;;28.90;59.20;;;;;;5043919;28;20885;-79
2021/11/08 08:52:49;;;;;;;22.83;14.02;;;29.10;58.20;;;;;;5046026;28;20187;-79
2021/11/08 08:55:15;;;;;;;23.08;13.73;;;29.10;58.90;;;;;;5041332;28;20186;-79
2021/11/08 08:57:41;;;;;;;20.38;14.63;;;29.40;58.50;;;;;;5044112;28;20647;-79
2021/11/08 09:00:09;;;;;;;24.13;15.48;;;29.80;58.70;;;;;;5043570;28;20258;-79
2021/11/08 09:02:35;;;;;;;21.73;14.82;;;30.30;57.20;;;;;;5040553;28;20188;-79
2021/11/08 09:05:01;;;;;;;19.33;14.82;;;30.80;57.20;;;;;;5043183;28;20186;-80
2021/11/08 09:07:28;;;;;;;19.83;14.25;;;31.40;56.80;;;;;;5039293;28;20198;-78
2021/11/08 09:09:54;;;;;;;24.67;16.35;;;31.80;55.70;;;;;;5042800;28;20675;-78
2021/11/08 09:12:20;;;;;;;25.58;16.38;;;32.10;55.20;;;;;;5043212;28;20261;-78
2021/11/08 09:14:50;;;;;;;33.65;17.35;;;32.20;54.10;;;;;;5043241;28;20224;-78
2021/11/08 09:17:16;;;;;;;30.38;17.58;;;31.90;53.50;;;;;;5041851;28;20216;-78
2021/11/08 09:19:42;;;;;;;25.42;17.23;;;31.30;53.20;;;;;;5043040;28;20191;-75
2021/11/08 09:22:08;;;;;;;31.98;17.70;;;30.70;55.60;;;;;;5043395;28;20187;-77
2021/11/08 09:24:35;;;;;;;25.45;16.85;;;30.30;55.60;;;;;;5043769;28;20180;-79
2021/11/08 09:27:01;;;;;;;28.63;17.50;;;30.00;56.40;;;;;;5041911;28;20183;-79
2021/11/08 09:29:27;;;;;;;37.42;18.08;;;29.80;57.20;;;;;;5038596;28;20179;-78
2021/11/08 09:31:53;;;;;;;21.95;17.15;;;29.80;56.20;;;;;;5036331;28;20324;-79
2021/11/08 09:34:22;;;;;;;26.05;16.85;;;29.70;55.80;;;;;;5040838;28;20187;-78
2021/11/08 09:36:50;;;;;;;26.23;16.40;;;29.80;56.80;;;;;;5041129;28;20219;-76
2021/11/08 09:39:26;;;;;;;25.08;17.05;;;29.50;56.20;;;;;;5040904;28;20192;-78
2021/11/08 09:41:57;;;;;;;22.70;15.77;;;28.90;56.20;;;;;;5044161;28;20229;-78
2021/11/08 09:44:23;;;;;;;22.25;14.82;;;28.30;58.40;;;;;;5043570;28;20188;-78
2021/11/08 09:46:54;;;;;;;23.10;14.88;;;28.10;57.70;;;;;;5043439;28;20184;-78
2021/11/08 09:49:20;;;;;;;21.98;15.18;;;28.10;58.80;;;;;;5043513;28;20179;-78
2021/11/08 09:51:48;;;;;;;20.85;12.88;;;28.30;57.80;;;;;;5042456;28;20207;-79
2021/11/08 09:54:15;;;;;;;23.35;14.98;;;28.60;57.70;;;;;;5044072;28;20176;-79
2021/11/08 09:56:43;;;;;;;25.45;15.45;;;28.80;56.50;;;;;;5038015;28;20256;-78
2021/11/08 09:59:10;;;;;;;21.77;13.88;;;28.80;57.30;;;;;;5041474;28;20168;-78
2021/11/08 10:01:41;;;;;;;23.17;13.98;;;28.90;56.00;;;;;;5041640;28;20257;-78
2021/11/08 10:04:10;;;;;;;26.50;15.15;;;29.30;57.00;;;;;;5042316;28;20282;-78
2021/11/08 10:06:37;;;;;;;26.02;13.45;;;29.70;56.90;;;;;;5041980;28;20218;-79
2021/11/08 10:09:10;;;;;;;24.52;14.25;;;30.10;56.10;;;;;;5046271;28;20400;-77
2021/11/08 10:11:38;;;;;;;24.17;14.43;;;30.40;55.70;;;;;;5048173;28;20344;-78
2021/11/08 10:14:04;;;;;;;23.80;15.23;;;30.40;55.00;;;;;;5050612;28;20199;-77
2021/11/08 10:16:33;;;;;;;22.80;15.43;;;30.30;54.60;;;;;;5053826;28;20239;-78
2021/11/08 10:19:02;;;;;;;22.50;16.42;;;30.00;54.70;;;;;;5045814;28;20246;-75
2021/11/08 10:21:31;;;;;;;30.17;17.90;;;29.60;55.80;;;;;;5045540;28;20179;-75
2021/11/08 10:24:00;;;;;;;32.42;19.23;;;29.10;55.90;;;;;;5044954;28;20194;-74
2021/11/08 10:26:29;;;;;;;34.13;18.92;;;28.60;57.40;;;;;;5044323;28;20180;-74
2021/11/08 10:29:05;;;;;;;29.17;19.55;;;28.00;58.10;;;;;;5045842;28;20187;-74
2021/11/08 10:31:34;;;;;;;32.75;20.92;;;27.30;59.50;;;;;;5046262;28;20179;-75
2021/11/08 10:34:08;;;;;;;30.30;19.45;;;26.30;60.00;;;;;;5046106;28;20294;-73
2021/11/08 10:36:34;;;;;;;26.40;19.00;;;26.30;61.00;;;;;;5046129;28;20242;-73
2021/11/08 10:39:01;;;;;;;27.85;17.85;;;25.90;61.30;;;;;;5046474;28;20246;-73
2021/11/08 10:41:38;;;;;;;34.67;19.95;;;25.50;61.40;;;;;;5044543;28;20187;-73
2021/11/08 10:44:17;;;;;;;32.42;19.75;;;25.20;62.50;;;;;;5044457;28;20233;-72
2021/11/08 10:46:45;;;;;;;33.40;20.63;;;25.00;62.60;;;;;;5045350;28;20194;-75
2021/11/08 10:49:21;;;;;;;31.55;18.55;;;24.90;63.30;;;;;;5044619;28;20191;-76
2021/11/08 10:51:50;;;;;;;34.08;18.35;;;25.00;63.40;;;;;;5046130;28;20175;-77
2021/11/08 10:54:37;;;;;;;26.80;17.90;;;25.40;63.30;;;;;;5047025;28;20334;-76
2021/11/08 10:57:10;;;;;;;33.70;18.13;;;26.00;62.60;;;;;;5045614;28;20257;-76
2021/11/08 10:59:48;;;;;;;27.58;17.17;;;26.60;61.10;;;;;;5042988;28;20209;-80
2021/11/08 11:02:17;;;;;;;28.30;16.90;;;27.20;60.80;;;;;;5045250;28;20192;-75
2021/11/08 11:04:46;;;;;;;27.98;16.48;;;27.90;60.00;;;;;;5047280;28;20188;-75
2021/11/08 11:07:23;;;;;;;19.75;15.20;;;28.60;58.60;;;;;;5044710;28;20195;-75
2021/11/08 11:09:51;;;;;;;29.80;15.93;;;29.30;57.70;;;;;;5045043;28;20736;-74
2021/11/08 11:12:26;;;;;;;27.10;16.27;;;30.00;56.70;;;;;;5046343;28;20258;-74
2021/11/08 11:15:09;;;;;;;23.77;15.45;;;30.60;55.80;;;;;;5045439;28;20646;-82
2021/11/08 11:17:47;;;;;;;27.88;15.48;;;31.30;54.50;;;;;;5049488;28;20217;-78
2021/11/08 11:20:14;;;;;;;30.52;14.07;;;32.10;54.00;;;;;;5046152;28;20653;-78
2021/11/08 11:22:46;;;;;;;25.45;14.05;;;32.70;53.60;;;;;;5046198;28;20192;-78
2021/11/08 11:25:14;;;;;;;25.63;15.07;;;33.30;53.10;;;;;;5048551;28;20180;-78
2021/11/08 11:27:48;;;;;;;25.00;15.05;;;33.70;51.40;;;;;;5046065;28;20183;-78
2021/11/08 11:30:24;;;;;;;24.33;13.75;;;34.00;51.50;;;;;;5045738;28;20709;-78
2021/11/08 11:33:06;;;;;;;23.73;15.25;;;34.20;51.50;;;;;;5045081;28;20183;-78
2021/11/08 11:35:37;;;;;;;26.02;14.40;;;34.40;48.50;;;;;;5046206;28;20196;-78
2021/11/08 11:38:06;;;;;;;21.75;14.55;;;34.60;50.10;;;;;;5044213;28;20212;-78
2021/11/08 11:40:36;;;;;;;19.00;12.45;;;34.60;50.40;;;;;;5045035;28;20203;-78
2021/11/08 11:43:09;;;;;;;20.05;11.48;;;34.50;47.50;;;;;;5045015;28;20180;-77
2021/11/08 11:45:51;;;;;;;15.32;10.45;;;33.90;48.90;;;;;;5046579;28;20187;-79
2021/11/08 11:48:19;;;;;;;17.52;9.77;;;33.30;48.10;;;;;;5045637;28;20175;-78
2021/11/08 11:50:44;;;;;;;16.05;9.18;;;32.80;50.00;;;;;;5046668;28;20198;-79
2021/11/08 11:53:10;;;;;;;14.68;9.80;;;32.50;51.20;;;;;;5043449;28;20183;-78
2021/11/08 11:55:38;;;;;;;11.70;8.32;;;32.30;51.20;;;;;;5046201;28;20190;-79
2021/11/08 11:58:05;;;;;;;18.95;9.40;;;32.10;50.10;;;;;;5044669;28;20217;-79
2021/11/08 12:00:38;;;;;;;11.05;8.55;;;31.60;50.30;;;;;;5045456;28;20237;-78
2021/11/08 12:03:05;;;;;;;12.35;7.63;;;31.60;52.10;;;;;;5044538;28;20640;-75
2021/11/08 12:05:31;;;;;;;13.68;7.20;;;31.60;52.30;;;;;;5045987;28;20188;-78
2021/11/08 12:08:06;;;;;;;16.10;7.72;;;31.70;51.70;;;;;;5045020;28;20686;-77
2021/11/08 12:10:32;;;;;;;9.45;7.15;;;31.90;50.90;;;;;;5045575;28;21050;-78
2021/11/08 12:12:58;;;;;;;15.45;7.47;;;31.70;48.40;;;;;;5043549;28;20183;-78
2021/11/08 12:15:29;;;;;;;17.02;7.05;;;31.70;48.50;;;;;;5040713;28;20191;-80
2021/11/08 12:18:05;;;;;;;10.98;6.63;;;31.80;48.20;;;;;;5048483;28;20213;-80
2021/11/08 12:20:30;;;;;;;14.93;7.32;;;31.70;48.30;;;;;;5043512;28;20926;-80
2021/11/08 12:22:56;;;;;;;20.80;7.50;;;31.60;48.50;;;;;;5043798;28;20192;-79
2021/11/08 12:25:27;;;;;;;11.18;6.22;;;31.60;51.00;;;;;;5042631;28;20183;-80
2021/11/08 12:27:56;;;;;;;13.10;6.63;;;31.60;50.20;;;;;;5041835;28;20207;-79
2021/11/08 12:30:31;;;;;;;13.68;5.65;;;31.60;49.70;;;;;;5040455;28;20262;-82
2021/11/08 12:33:04;;;;;;;7.38;5.55;;;31.70;51.20;;;;;;5042885;28;20191;-80
2021/11/08 12:35:33;;;;;;;9.25;5.10;;;31.90;51.70;;;;;;5041277;28;20569;-82
2021/11/08 12:37:59;;;;;;;7.63;4.95;;;32.10;50.30;;;;;;5042603;28;20216;-81
2021/11/08 12:40:31;;;;;;;10.43;4.53;;;32.20;50.50;;;;;;5045804;28;20176;-76
2021/11/08 12:42:59;;;;;;;8.15;5.50;;;32.10;49.40;;;;;;5041894;28;20179;-79
2021/11/08 12:45:29;;;;;;;6.90;4.85;;;31.90;49.80;;;;;;5044087;28;20187;-79
2021/11/08 12:48:09;;;;;;;7.15;5.20;;;31.80;50.10;;;;;;5046553;28;20183;-81
2021/11/08 12:50:53;;;;;;;6.05;4.65;;;31.50;48.60;;;;;;5047267;28;20579;-81
2021/11/08 12:53:25;;;;;;;7.97;5.00;;;30.90;49.00;;;;;;5045587;28;20184;-80
2021/11/08 12:55:52;;;;;;;8.98;4.93;;;30.50;52.50;;;;;;5043753;28;20604;-85
2021/11/08 12:58:17;;;;;;;10.35;5.13;;;30.20;52.20;;;;;;5046150;28;20232;-84
2021/11/08 13:00:51;;;;;;;16.40;5.60;;;30.20;52.20;;;;;;5045465;28;21039;-86
2021/11/08 13:03:30;;;;;;;5.57;5.03;;;30.20;52.80;;;;;;5038971;28;20198;-81
2021/11/08 13:05:58;;;;;;;9.35;6.18;;;30.00;51.00;;;;;;5042502;28;20211;-81
2021/11/08 13:08:29;;;;;;;11.70;6.00;;;29.70;52.80;;;;;;5043445;28;20180;-78
2021/11/08 13:11:06;;;;;;;12.10;6.30;;;29.50;53.20;;;;;;5046069;28;20238;-82
2021/11/08 13:13:32;;;;;;;16.90;7.10;;;29.50;52.70;;;;;;5041774;28;20191;-82
2021/11/08 13:16:10;;;;;;;10.02;6.72;;;29.50;52.90;;;;;;5044088;28;20198;-78
2021/11/08 13:18:40;;;;;;;18.20;6.47;;;29.10;52.20;;;;;;5044537;28;20245;-79
2021/11/08 13:21:08;;;;;;;9.38;5.95;;;28.60;53.90;;;;;;5043594;28;20206;-78
2021/11/08 13:23:38;;;;;;;8.45;5.75;;;28.20;55.30;;;;;;5043847;28;20269;-79
2021/11/08 13:26:04;;;;;;;10.07;6.03;;;27.80;55.80;;;;;;5042514;28;20192;-78
2021/11/08 13:28:32;;;;;;;11.68;5.82;;;27.30;55.20;;;;;;5041948;28;20183;-78
2021/11/08 13:31:07;;;;;;;10.35;5.75;;;27.00;56.10;;;;;;5040317;28;20721;-78
2021/11/08 13:33:44;;;;;;;13.02;6.03;;;26.70;56.90;;;;;;5039833;28;21002;-78
2021/11/08 13:36:13;;;;;;;14.40;6.47;;;26.40;56.90;;;;;;5041152;28;20199;-78
2021/11/08 13:38:51;;;;;;;13.73;7.03;;;26.10;57.70;;;;;;5040649;28;20231;-79
2021/11/08 13:41:21;;;;;;;12.43;6.75;;;25.70;57.60;;;;;;5041813;28;20194;-77
2021/11/08 13:43:52;;;;;;;11.95;6.97;;;25.40;58.80;;;;;;5044650;28;20203;-78
2021/11/08 13:46:22;;;;;;;8.05;4.97;;;25.10;59.20;;;;;;5045175;28;20179;-78
2021/11/08 13:48:51;;;;;;;10.70;5.60;;;25.00;58.30;;;;;;5046471;28;20191;-78
2021/11/08 13:51:48;;;;;;;4.55;3.38;;;24.80;59.30;;;;;;5046858;28;20183;-77
2021/11/08 13:54:23;;;;;;;5.60;4.18;;;24.70;57.90;;;;;;5046607;28;20187;-77
2021/11/08 13:56:55;;;;;;;22.20;3.53;;;24.70;58.70;;;;;;5047938;28;20198;-78
2021/11/08 13:59:30;;;;;;;9.25;2.25;;;24.60;57.90;;;;;;5046648;28;20199;-77
2021/11/08 14:02:23;;;;;;;6.72;2.25;;;24.60;57.50;;;;;;5045755;28;20183;-77
2021/11/08 14:04:54;;;;;;;5.53;2.28;;;24.40;56.20;;;;;;5045688;28;20269;-78
2021/11/08 14:07:22;;;;;;;3.25;2.20;;;24.40;56.30;;;;;;5046200;28;20176;-76
2021/11/08 14:09:49;;;;;;;4.70;2.00;;;24.30;57.00;;;;;;5044925;28;20187;-77
2021/11/08 14:12:19;;;;;;;7.82;2.15;;;24.10;56.80;;;;;;5047401;28;20271;-79
2021/11/08 14:14:47;;;;;;;5.63;2.35;;;24.10;56.60;;;;;;5048382;28;20270;-79
2021/11/08 14:17:18;;;;;;;4.13;2.25;;;23.90;57.30;;;;;;5045819;28;20226;-80
2021/11/08 14:19:47;;;;;;;9.25;2.88;;;23.80;58.00;;;;;;5046313;28;20190;-79
2021/11/08 14:22:14;;;;;;;10.55;2.42;;;23.60;57.70;;;;;;5047672;28;20263;-80
2021/11/08 14:24:47;;;;;;;11.10;2.67;;;23.40;58.40;;;;;;5047614;28;20316;-79
2021/11/08 14:27:21;;;;;;;6.65;3.08;;;23.20;58.80;;;;;;5045987;28;20245;-80
2021/11/08 14:29:48;;;;;;;5.30;3.03;;;23.00;59.30;;;;;;5046175;28;20339;-81
2021/11/08 14:32:27;;;;;;;9.93;3.17;;;22.90;59.40;;;;;;5047139;28;20188;-79
2021/11/08 14:35:07;;;;;;;4.07;3.25;;;22.70;60.20;;;;;;5047186;28;20195;-81